sensor_id;sensor_type;location;lat;lon;timestamp;temperature;humidity
24049;DHT22;12250;50.956;4.746;2022-10-17T00:01:46;14.90;99.90
24049;DHT22;12250;50.956;4.746;2022-10-17T00:04:11;14.90;99.90
24049;DHT22;12250;50.956;4.746;2022-10-17T00:06:38;15.00;99.90
24049;DHT22;12250;50.956;4.746;2022-10-17T00:09:04;15.00;99.90
24049;DHT22;12250;50.956;4.746;2022-10-17T00:11:29;15.00;99.90
24049;DHT22;12250;50.956;4.746;2022-10-17T00:13:55;15.00;99.90
24049;DHT22;12250;50.956;4.746;2022-10-17T00:16:25;15.00;99.90
24049;DHT22;12250;50.956;4.746;2022-10-17T00:18:51;15.00;99.90
24049;DHT22;12250;50.956;4.746;2022-10-17T00:21:18;15.00;99.90
24049;DHT22;12250;50.956;4.746;2022-10-17T00:23:45;14.90;99.90
24049;DHT22;12250;50.956;4.746;2022-10-17T00:26:11;14.90;99.90
24049;DHT22;12250;50.956;4.746;2022-10-17T00:28:36;14.90;99.90
24049;DHT22;12250;50.956;4.746;2022-10-17T00:31:04;14.90;99.90
24049;DHT22;12250;50.956;4.746;2022-10-17T00:33:30;14.90;99.90
24049;DHT22;12250;50.956;4.746;2022-10-17T00:36:08;14.90;99.90
24049;DHT22;12250;50.956;4.746;2022-10-17T00:38:35;14.90;99.90
24049;DHT22;12250;50.956;4.746;2022-10-17T00:41:02;14.80;99.90
24049;DHT22;12250;50.956;4.746;2022-10-17T00:43:28;14.80;99.90
24049;DHT22;12250;50.956;4.746;2022-10-17T00:45:55;14.80;99.90
24049;DHT22;12250;50.956;4.746;2022-10-17T00:48:23;14.90;99.90
24049;DHT22;12250;50.956;4.746;2022-10-17T00:50:49;15.00;99.90
24049;DHT22;12250;50.956;4.746;2022-10-17T00:53:16;15.00;99.90
24049;DHT22;12250;50.956;4.746;2022-10-17T00:55:49;14.90;99.90
24049;DHT22;12250;50.956;4.746;2022-10-17T00:58:16;15.00;99.90
24049;DHT22;12250;50.956;4.746;2022-10-17T01:00:43;15.00;99.90
24049;DHT22;12250;50.956;4.746;2022-10-17T01:03:09;15.10;99.90
24049;DHT22;12250;50.956;4.746;2022-10-17T01:05:36;15.10;99.90
24049;DHT22;12250;50.956;4.746;2022-10-17T01:08:03;15.10;99.90
24049;DHT22;12250;50.956;4.746;2022-10-17T01:11:01;15.10;99.90
24049;DHT22;12250;50.956;4.746;2022-10-17T01:13:36;15.10;99.90
24049;DHT22;12250;50.956;4.746;2022-10-17T01:21:59;15.20;99.90
24049;DHT22;12250;50.956;4.746;2022-10-17T01:32:46;15.10;99.90
24049;DHT22;12250;50.956;4.746;2022-10-17T01:35:21;15.00;99.90
24049;DHT22;12250;50.956;4.746;2022-10-17T01:38:08;15.00;99.90
24049;DHT22;12250;50.956;4.746;2022-10-17T01:40:38;15.10;99.90
24049;DHT22;12250;50.956;4.746;2022-10-17T01:43:28;15.10;99.90
24049;DHT22;12250;50.956;4.746;2022-10-17T01:46:17;15.10;99.90
24049;DHT22;12250;50.956;4.746;2022-10-17T01:48:46;15.00;99.90
24049;DHT22;12250;50.956;4.746;2022-10-17T01:51:20;15.00;99.90
24049;DHT22;12250;50.956;4.746;2022-10-17T01:54:24;15.10;99.90
24049;DHT22;12250;50.956;4.746;2022-10-17T01:56:55;15.10;99.90
24049;DHT22;12250;50.956;4.746;2022-10-17T01:59:26;15.10;99.90
24049;DHT22;12250;50.956;4.746;2022-10-17T02:01:55;15.00;99.90
24049;DHT22;12250;50.956;4.746;2022-10-17T02:04:22;15.00;99.90
24049;DHT22;12250;50.956;4.746;2022-10-17T02:06:49;15.10;99.90
24049;DHT22;12250;50.956;4.746;2022-10-17T02:09:25;15.00;99.90
24049;DHT22;12250;50.956;4.746;2022-10-17T02:12:08;15.10;99.90
24049;DHT22;12250;50.956;4.746;2022-10-17T02:23:09;15.40;99.90
24049;DHT22;12250;50.956;4.746;2022-10-17T02:25:42;15.40;99.90
24049;DHT22;12250;50.956;4.746;2022-10-17T02:30:59;15.60;99.90
24049;DHT22;12250;50.956;4.746;2022-10-17T02:36:03;15.80;99.90
24049;DHT22;12250;50.956;4.746;2022-10-17T02:38:31;15.90;99.90
24049;DHT22;12250;50.956;4.746;2022-10-17T02:40:58;15.90;99.90
24049;DHT22;12250;50.956;4.746;2022-10-17T02:43:24;15.90;99.90
24049;DHT22;12250;50.956;4.746;2022-10-17T02:45:50;16.00;99.90
24049;DHT22;12250;50.956;4.746;2022-10-17T02:48:34;16.10;99.90
24049;DHT22;12250;50.956;4.746;2022-10-17T02:51:10;16.10;99.90
24049;DHT22;12250;50.956;4.746;2022-10-17T02:56:15;16.30;99.90
24049;DHT22;12250;50.956;4.746;2022-10-17T02:58:42;16.30;99.90
24049;DHT22;12250;50.956;4.746;2022-10-17T03:01:11;16.30;99.90
24049;DHT22;12250;50.956;4.746;2022-10-17T03:03:37;16.40;99.90
24049;DHT22;12250;50.956;4.746;2022-10-17T03:06:03;16.30;99.90
24049;DHT22;12250;50.956;4.746;2022-10-17T03:08:28;16.40;99.90
24049;DHT22;12250;50.956;4.746;2022-10-17T03:10:54;16.50;99.90
24049;DHT22;12250;50.956;4.746;2022-10-17T03:13:19;16.50;99.90
24049;DHT22;12250;50.956;4.746;2022-10-17T03:15:46;16.60;99.90
24049;DHT22;12250;50.956;4.746;2022-10-17T03:18:11;16.60;99.90
24049;DHT22;12250;50.956;4.746;2022-10-17T03:20:37;16.60;99.90
24049;DHT22;12250;50.956;4.746;2022-10-17T03:23:03;16.70;99.90
24049;DHT22;12250;50.956;4.746;2022-10-17T03:25:28;16.70;99.90
24049;DHT22;12250;50.956;4.746;2022-10-17T03:27:57;16.80;99.90
24049;DHT22;12250;50.956;4.746;2022-10-17T03:30:23;16.90;99.90
24049;DHT22;12250;50.956;4.746;2022-10-17T03:32:49;16.90;99.90
24049;DHT22;12250;50.956;4.746;2022-10-17T03:35:15;17.00;99.90
24049;DHT22;12250;50.956;4.746;2022-10-17T03:37:40;17.00;99.90
24049;DHT22;12250;50.956;4.746;2022-10-17T03:40:06;17.10;99.90
24049;DHT22;12250;50.956;4.746;2022-10-17T03:42:32;17.10;99.90
24049;DHT22;12250;50.956;4.746;2022-10-17T03:44:57;17.10;99.90
24049;DHT22;12250;50.956;4.746;2022-10-17T03:47:23;17.00;99.90
24049;DHT22;12250;50.956;4.746;2022-10-17T03:49:49;17.00;99.90
24049;DHT22;12250;50.956;4.746;2022-10-17T03:52:14;16.80;99.90
24049;DHT22;12250;50.956;4.746;2022-10-17T03:54:40;16.80;99.90
24049;DHT22;12250;50.956;4.746;2022-10-17T03:57:06;16.90;99.90
24049;DHT22;12250;50.956;4.746;2022-10-17T03:59:32;16.80;99.90
24049;DHT22;12250;50.956;4.746;2022-10-17T04:01:57;16.80;99.90
24049;DHT22;12250;50.956;4.746;2022-10-17T04:04:23;16.80;99.90
24049;DHT22;12250;50.956;4.746;2022-10-17T04:06:48;16.70;99.90
24049;DHT22;12250;50.956;4.746;2022-10-17T04:09:14;16.70;99.90
24049;DHT22;12250;50.956;4.746;2022-10-17T04:11:40;16.70;99.90
24049;DHT22;12250;50.956;4.746;2022-10-17T04:14:05;16.70;99.90
24049;DHT22;12250;50.956;4.746;2022-10-17T04:16:31;16.60;99.90
24049;DHT22;12250;50.956;4.746;2022-10-17T04:18:58;16.60;99.90
24049;DHT22;12250;50.956;4.746;2022-10-17T04:21:26;16.60;99.90
24049;DHT22;12250;50.956;4.746;2022-10-17T04:24:01;16.60;99.90
24049;DHT22;12250;50.956;4.746;2022-10-17T04:26:27;16.60;99.90
24049;DHT22;12250;50.956;4.746;2022-10-17T04:28:53;16.60;99.90
24049;DHT22;12250;50.956;4.746;2022-10-17T04:31:18;16.50;99.90
24049;DHT22;12250;50.956;4.746;2022-10-17T04:33:48;16.50;99.90
24049;DHT22;12250;50.956;4.746;2022-10-17T04:36:18;16.50;99.90
24049;DHT22;12250;50.956;4.746;2022-10-17T04:38:44;16.60;99.90
24049;DHT22;12250;50.956;4.746;2022-10-17T04:41:13;16.60;99.90
24049;DHT22;12250;50.956;4.746;2022-10-17T04:43:39;16.60;99.90
24049;DHT22;12250;50.956;4.746;2022-10-17T04:46:10;16.70;99.90
24049;DHT22;12250;50.956;4.746;2022-10-17T04:48:37;16.70;99.90
24049;DHT22;12250;50.956;4.746;2022-10-17T04:51:06;16.70;99.90
24049;DHT22;12250;50.956;4.746;2022-10-17T04:53:34;16.60;99.90
24049;DHT22;12250;50.956;4.746;2022-10-17T04:55:59;16.60;99.90
24049;DHT22;12250;50.956;4.746;2022-10-17T04:58:27;16.60;99.90
24049;DHT22;12250;50.956;4.746;2022-10-17T05:00:54;16.60;99.90
24049;DHT22;12250;50.956;4.746;2022-10-17T05:03:19;16.60;99.90
24049;DHT22;12250;50.956;4.746;2022-10-17T05:05:45;16.60;99.90
24049;DHT22;12250;50.956;4.746;2022-10-17T05:08:12;16.70;99.90
24049;DHT22;12250;50.956;4.746;2022-10-17T05:10:39;16.70;99.90
24049;DHT22;12250;50.956;4.746;2022-10-17T05:13:06;16.70;99.90
24049;DHT22;12250;50.956;4.746;2022-10-17T05:15:33;16.80;99.90
24049;DHT22;12250;50.956;4.746;2022-10-17T05:17:59;16.80;99.90
24049;DHT22;12250;50.956;4.746;2022-10-17T05:20:25;16.80;99.90
24049;DHT22;12250;50.956;4.746;2022-10-17T05:22:51;16.80;99.90
24049;DHT22;12250;50.956;4.746;2022-10-17T05:25:17;16.80;99.90
24049;DHT22;12250;50.956;4.746;2022-10-17T05:27:42;16.80;99.90
24049;DHT22;12250;50.956;4.746;2022-10-17T05:30:08;16.80;99.90
24049;DHT22;12250;50.956;4.746;2022-10-17T05:32:34;16.80;99.90
24049;DHT22;12250;50.956;4.746;2022-10-17T05:35:00;16.80;99.90
24049;DHT22;12250;50.956;4.746;2022-10-17T05:37:29;16.80;99.90
24049;DHT22;12250;50.956;4.746;2022-10-17T05:39:55;16.80;99.90
24049;DHT22;12250;50.956;4.746;2022-10-17T05:42:21;16.80;99.90
24049;DHT22;12250;50.956;4.746;2022-10-17T05:44:47;16.80;99.90
24049;DHT22;12250;50.956;4.746;2022-10-17T05:47:12;16.80;99.90
24049;DHT22;12250;50.956;4.746;2022-10-17T05:49:38;16.90;99.90
24049;DHT22;12250;50.956;4.746;2022-10-17T05:52:04;16.90;99.90
24049;DHT22;12250;50.956;4.746;2022-10-17T05:54:29;16.80;99.90
24049;DHT22;12250;50.956;4.746;2022-10-17T05:56:56;16.90;99.90
24049;DHT22;12250;50.956;4.746;2022-10-17T05:59:24;16.90;99.90
24049;DHT22;12250;50.956;4.746;2022-10-17T06:01:50;16.90;99.90
24049;DHT22;12250;50.956;4.746;2022-10-17T06:04:16;16.90;99.90
24049;DHT22;12250;50.956;4.746;2022-10-17T06:06:41;17.00;99.90
24049;DHT22;12250;50.956;4.746;2022-10-17T06:09:07;17.00;99.90
24049;DHT22;12250;50.956;4.746;2022-10-17T06:11:34;17.00;99.90
24049;DHT22;12250;50.956;4.746;2022-10-17T06:14:00;17.00;99.90
24049;DHT22;12250;50.956;4.746;2022-10-17T06:16:26;17.10;99.90
24049;DHT22;12250;50.956;4.746;2022-10-17T06:18:52;17.20;99.90
24049;DHT22;12250;50.956;4.746;2022-10-17T06:21:26;17.20;99.90
24049;DHT22;12250;50.956;4.746;2022-10-17T06:23:52;17.10;99.90
24049;DHT22;12250;50.956;4.746;2022-10-17T06:26:19;17.20;99.90
24049;DHT22;12250;50.956;4.746;2022-10-17T06:28:44;17.20;99.90
24049;DHT22;12250;50.956;4.746;2022-10-17T06:31:13;17.30;99.90
24049;DHT22;12250;50.956;4.746;2022-10-17T06:33:39;17.20;99.90
24049;DHT22;12250;50.956;4.746;2022-10-17T06:36:06;17.40;99.90
24049;DHT22;12250;50.956;4.746;2022-10-17T06:38:35;17.40;99.90
24049;DHT22;12250;50.956;4.746;2022-10-17T06:43:32;17.50;99.90
24049;DHT22;12250;50.956;4.746;2022-10-17T06:45:58;17.60;99.90
24049;DHT22;12250;50.956;4.746;2022-10-17T06:48:24;17.70;99.90
24049;DHT22;12250;50.956;4.746;2022-10-17T06:50:49;17.80;99.90
24049;DHT22;12250;50.956;4.746;2022-10-17T06:53:15;17.90;99.90
24049;DHT22;12250;50.956;4.746;2022-10-17T06:55:41;18.00;99.90
24049;DHT22;12250;50.956;4.746;2022-10-17T06:58:07;18.10;99.90
24049;DHT22;12250;50.956;4.746;2022-10-17T07:00:33;18.10;99.90
24049;DHT22;12250;50.956;4.746;2022-10-17T07:02:58;18.30;99.90
24049;DHT22;12250;50.956;4.746;2022-10-17T07:05:24;18.30;99.90
24049;DHT22;12250;50.956;4.746;2022-10-17T07:07:49;18.40;99.90
24049;DHT22;12250;50.956;4.746;2022-10-17T07:10:15;18.50;99.90
24049;DHT22;12250;50.956;4.746;2022-10-17T07:12:41;18.60;99.90
24049;DHT22;12250;50.956;4.746;2022-10-17T07:15:09;18.70;99.90
24049;DHT22;12250;50.956;4.746;2022-10-17T07:17:35;18.80;99.90
24049;DHT22;12250;50.956;4.746;2022-10-17T07:20:00;19.00;99.90
24049;DHT22;12250;50.956;4.746;2022-10-17T07:22:29;19.20;99.90
24049;DHT22;12250;50.956;4.746;2022-10-17T07:24:54;19.30;99.90
24049;DHT22;12250;50.956;4.746;2022-10-17T07:27:20;19.40;99.90
24049;DHT22;12250;50.956;4.746;2022-10-17T07:29:45;19.60;99.90
24049;DHT22;12250;50.956;4.746;2022-10-17T07:32:11;19.50;99.90
24049;DHT22;12250;50.956;4.746;2022-10-17T07:34:37;19.50;99.90
24049;DHT22;12250;50.956;4.746;2022-10-17T07:37:03;19.50;99.90
24049;DHT22;12250;50.956;4.746;2022-10-17T07:39:29;19.40;99.90
24049;DHT22;12250;50.956;4.746;2022-10-17T07:41:54;19.20;99.90
24049;DHT22;12250;50.956;4.746;2022-10-17T07:44:20;19.00;99.90
24049;DHT22;12250;50.956;4.746;2022-10-17T07:46:46;18.80;99.90
24049;DHT22;12250;50.956;4.746;2022-10-17T07:49:12;18.70;99.90
24049;DHT22;12250;50.956;4.746;2022-10-17T07:51:38;18.70;99.90
24049;DHT22;12250;50.956;4.746;2022-10-17T07:54:04;18.60;99.90
24049;DHT22;12250;50.956;4.746;2022-10-17T07:56:31;18.60;99.90
24049;DHT22;12250;50.956;4.746;2022-10-17T07:58:56;18.60;99.90
24049;DHT22;12250;50.956;4.746;2022-10-17T08:01:22;18.60;99.90
24049;DHT22;12250;50.956;4.746;2022-10-17T08:03:50;18.50;99.90
24049;DHT22;12250;50.956;4.746;2022-10-17T08:06:16;18.40;99.90
24049;DHT22;12250;50.956;4.746;2022-10-17T08:08:42;18.30;99.90
24049;DHT22;12250;50.956;4.746;2022-10-17T08:11:10;18.30;99.90
24049;DHT22;12250;50.956;4.746;2022-10-17T08:13:36;18.20;99.90
24049;DHT22;12250;50.956;4.746;2022-10-17T08:16:04;18.20;99.90
24049;DHT22;12250;50.956;4.746;2022-10-17T08:18:32;18.20;99.90
24049;DHT22;12250;50.956;4.746;2022-10-17T08:21:02;18.20;99.90
24049;DHT22;12250;50.956;4.746;2022-10-17T08:23:31;18.20;99.90
24049;DHT22;12250;50.956;4.746;2022-10-17T08:26:01;18.30;99.90
24049;DHT22;12250;50.956;4.746;2022-10-17T08:28:27;18.30;99.90
24049;DHT22;12250;50.956;4.746;2022-10-17T08:30:53;18.30;99.90
24049;DHT22;12250;50.956;4.746;2022-10-17T08:33:18;18.30;99.90
24049;DHT22;12250;50.956;4.746;2022-10-17T08:35:44;18.30;99.90
24049;DHT22;12250;50.956;4.746;2022-10-17T08:38:09;18.30;99.90
24049;DHT22;12250;50.956;4.746;2022-10-17T08:40:35;18.30;99.90
24049;DHT22;12250;50.956;4.746;2022-10-17T08:47:59;17.90;99.90
24049;DHT22;12250;50.956;4.746;2022-10-17T08:50:29;17.90;99.90
24049;DHT22;12250;50.956;4.746;2022-10-17T08:53:18;18.00;99.90
24049;DHT22;12250;50.956;4.746;2022-10-17T08:55:47;18.00;99.90
24049;DHT22;12250;50.956;4.746;2022-10-17T08:58:23;18.10;99.90
24049;DHT22;12250;50.956;4.746;2022-10-17T09:01:09;18.20;99.90
24049;DHT22;12250;50.956;4.746;2022-10-17T09:03:49;18.30;99.90
24049;DHT22;12250;50.956;4.746;2022-10-17T09:06:49;18.60;99.90
24049;DHT22;12250;50.956;4.746;2022-10-17T09:13:18;18.70;99.90
24049;DHT22;12250;50.956;4.746;2022-10-17T09:15:28;18.70;99.90
24049;DHT22;12250;50.956;4.746;2022-10-17T09:18:55;18.70;99.90
24049;DHT22;12250;50.956;4.746;2022-10-17T09:21:00;18.60;99.90
24049;DHT22;12250;50.956;4.746;2022-10-17T09:26:27;18.50;99.90
24049;DHT22;12250;50.956;4.746;2022-10-17T09:28:55;18.50;99.90
24049;DHT22;12250;50.956;4.746;2022-10-17T09:31:37;18.40;99.90
24049;DHT22;12250;50.956;4.746;2022-10-17T09:34:08;18.40;99.90
24049;DHT22;12250;50.956;4.746;2022-10-17T09:36:37;18.40;99.90
24049;DHT22;12250;50.956;4.746;2022-10-17T09:39:11;18.40;99.90
24049;DHT22;12250;50.956;4.746;2022-10-17T09:41:53;18.40;99.90
24049;DHT22;12250;50.956;4.746;2022-10-17T09:49:32;18.50;99.90
24049;DHT22;12250;50.956;4.746;2022-10-17T09:51:59;18.50;99.90
24049;DHT22;12250;50.956;4.746;2022-10-17T09:57:07;18.50;99.90
24049;DHT22;12250;50.956;4.746;2022-10-17T10:04:33;18.70;99.90
24049;DHT22;12250;50.956;4.746;2022-10-17T10:07:02;18.80;99.90
24049;DHT22;12250;50.956;4.746;2022-10-17T10:09:32;18.90;99.90
24049;DHT22;12250;50.956;4.746;2022-10-17T10:12:00;18.90;99.90
24049;DHT22;12250;50.956;4.746;2022-10-17T10:14:35;19.00;99.90
24049;DHT22;12250;50.956;4.746;2022-10-17T10:17:04;19.00;99.90
24049;DHT22;12250;50.956;4.746;2022-10-17T10:19:36;19.00;99.90
24049;DHT22;12250;50.956;4.746;2022-10-17T10:22:04;19.00;99.90
24049;DHT22;12250;50.956;4.746;2022-10-17T10:24:30;19.00;99.90
24049;DHT22;12250;50.956;4.746;2022-10-17T10:27:01;19.00;99.90
24049;DHT22;12250;50.956;4.746;2022-10-17T10:32:24;19.00;99.90
24049;DHT22;12250;50.956;4.746;2022-10-17T10:37:25;18.90;99.90
24049;DHT22;12250;50.956;4.746;2022-10-17T10:39:54;18.90;99.90
24049;DHT22;12250;50.956;4.746;2022-10-17T10:42:26;18.90;99.90
24049;DHT22;12250;50.956;4.746;2022-10-17T10:44:57;18.90;99.90
24049;DHT22;12250;50.956;4.746;2022-10-17T10:47:26;18.90;99.90
24049;DHT22;12250;50.956;4.746;2022-10-17T10:50:22;19.00;99.90
24049;DHT22;12250;50.956;4.746;2022-10-17T10:55:48;19.10;99.90
24049;DHT22;12250;50.956;4.746;2022-10-17T11:01:55;19.30;99.90
24049;DHT22;12250;50.956;4.746;2022-10-17T11:04:18;19.40;99.90
24049;DHT22;12250;50.956;4.746;2022-10-17T11:06:47;19.40;99.90
24049;DHT22;12250;50.956;4.746;2022-10-17T11:12:05;19.50;99.90
24049;DHT22;12250;50.956;4.746;2022-10-17T11:22:45;19.70;99.90
24049;DHT22;12250;50.956;4.746;2022-10-17T11:27:56;19.70;99.90
24049;DHT22;12250;50.956;4.746;2022-10-17T11:30:24;19.70;99.90
24049;DHT22;12250;50.956;4.746;2022-10-17T11:33:00;19.70;99.90
24049;DHT22;12250;50.956;4.746;2022-10-17T11:35:29;19.80;99.90
24049;DHT22;12250;50.956;4.746;2022-10-17T11:41:03;19.90;99.90
24049;DHT22;12250;50.956;4.746;2022-10-17T11:43:48;20.00;99.90
24049;DHT22;12250;50.956;4.746;2022-10-17T11:46:20;20.00;99.90
24049;DHT22;12250;50.956;4.746;2022-10-17T11:54:38;19.80;99.90
24049;DHT22;12250;50.956;4.746;2022-10-17T12:05:43;19.70;99.90
24049;DHT22;12250;50.956;4.746;2022-10-17T12:11:53;19.70;99.90
24049;DHT22;12250;50.956;4.746;2022-10-17T12:14:43;19.60;99.90
24049;DHT22;12250;50.956;4.746;2022-10-17T12:17:36;19.50;99.90
24049;DHT22;12250;50.956;4.746;2022-10-17T12:22:47;19.50;99.90
24049;DHT22;12250;50.956;4.746;2022-10-17T12:27:44;19.50;99.90
24049;DHT22;12250;50.956;4.746;2022-10-17T12:30:17;19.40;99.90
24049;DHT22;12250;50.956;4.746;2022-10-17T12:35:37;19.20;99.90
24049;DHT22;12250;50.956;4.746;2022-10-17T12:38:23;19.20;99.90
24049;DHT22;12250;50.956;4.746;2022-10-17T12:40:51;19.20;99.90
24049;DHT22;12250;50.956;4.746;2022-10-17T12:48:12;19.20;99.90
24049;DHT22;12250;50.956;4.746;2022-10-17T12:56:37;19.20;99.90
24049;DHT22;12250;50.956;4.746;2022-10-17T12:59:28;19.30;99.90
24049;DHT22;12250;50.956;4.746;2022-10-17T13:01:59;19.40;99.90
24049;DHT22;12250;50.956;4.746;2022-10-17T13:04:27;19.50;99.90
24049;DHT22;12250;50.956;4.746;2022-10-17T13:06:56;19.50;99.90
24049;DHT22;12250;50.956;4.746;2022-10-17T13:11:56;19.50;99.90
24049;DHT22;12250;50.956;4.746;2022-10-17T13:14:24;19.50;99.90
24049;DHT22;12250;50.956;4.746;2022-10-17T13:17:01;19.60;99.90
24049;DHT22;12250;50.956;4.746;2022-10-17T13:19:41;19.70;99.90
24049;DHT22;12250;50.956;4.746;2022-10-17T13:22:18;19.80;99.90
24049;DHT22;12250;50.956;4.746;2022-10-17T13:24:45;19.80;99.90
24049;DHT22;12250;50.956;4.746;2022-10-17T13:29:50;19.90;99.90
24049;DHT22;12250;50.956;4.746;2022-10-17T13:32:16;20.00;99.90
24049;DHT22;12250;50.956;4.746;2022-10-17T13:34:42;20.20;99.90
24049;DHT22;12250;50.956;4.746;2022-10-17T13:37:12;20.30;99.90
24049;DHT22;12250;50.956;4.746;2022-10-17T13:39:44;20.40;99.90
24049;DHT22;12250;50.956;4.746;2022-10-17T13:42:22;20.40;99.90
24049;DHT22;12250;50.956;4.746;2022-10-17T13:44:49;20.40;99.90
24049;DHT22;12250;50.956;4.746;2022-10-17T13:47:27;20.20;99.90
24049;DHT22;12250;50.956;4.746;2022-10-17T13:49:54;20.10;99.90
24049;DHT22;12250;50.956;4.746;2022-10-17T13:52:23;20.10;99.90
24049;DHT22;12250;50.956;4.746;2022-10-17T13:54:50;20.00;99.90
24049;DHT22;12250;50.956;4.746;2022-10-17T13:57:24;20.00;99.90
24049;DHT22;12250;50.956;4.746;2022-10-17T13:59:58;20.10;99.90
24049;DHT22;12250;50.956;4.746;2022-10-17T14:02:27;20.20;99.90
24049;DHT22;12250;50.956;4.746;2022-10-17T14:07:39;20.10;99.90
24049;DHT22;12250;50.956;4.746;2022-10-17T14:10:15;20.00;99.90
24049;DHT22;12250;50.956;4.746;2022-10-17T14:12:42;20.00;99.90
24049;DHT22;12250;50.956;4.746;2022-10-17T14:15:13;20.10;99.90
24049;DHT22;12250;50.956;4.746;2022-10-17T14:17:39;19.90;99.90
24049;DHT22;12250;50.956;4.746;2022-10-17T14:20:06;19.90;99.90
24049;DHT22;12250;50.956;4.746;2022-10-17T14:22:35;19.90;99.90
24049;DHT22;12250;50.956;4.746;2022-10-17T14:25:02;19.90;99.90
24049;DHT22;12250;50.956;4.746;2022-10-17T14:27:34;19.90;99.90
24049;DHT22;12250;50.956;4.746;2022-10-17T14:30:04;19.90;99.90
24049;DHT22;12250;50.956;4.746;2022-10-17T14:32:34;19.90;99.90
24049;DHT22;12250;50.956;4.746;2022-10-17T14:35:02;20.00;99.90
24049;DHT22;12250;50.956;4.746;2022-10-17T14:39:54;20.00;99.90
24049;DHT22;12250;50.956;4.746;2022-10-17T14:42:21;20.00;99.90
24049;DHT22;12250;50.956;4.746;2022-10-17T14:44:51;20.10;99.90
24049;DHT22;12250;50.956;4.746;2022-10-17T14:47:24;20.10;99.90
24049;DHT22;12250;50.956;4.746;2022-10-17T14:50:19;20.20;99.90
24049;DHT22;12250;50.956;4.746;2022-10-17T14:53:16;20.20;99.90
24049;DHT22;12250;50.956;4.746;2022-10-17T14:55:55;20.30;99.90
24049;DHT22;12250;50.956;4.746;2022-10-17T14:58:29;20.40;99.90
24049;DHT22;12250;50.956;4.746;2022-10-17T15:00:56;20.40;99.90
24049;DHT22;12250;50.956;4.746;2022-10-17T15:03:23;20.50;99.90
24049;DHT22;12250;50.956;4.746;2022-10-17T15:05:53;20.50;99.90
24049;DHT22;12250;50.956;4.746;2022-10-17T15:08:21;20.60;99.90
24049;DHT22;12250;50.956;4.746;2022-10-17T15:10:48;20.60;99.90
24049;DHT22;12250;50.956;4.746;2022-10-17T15:13:15;20.50;99.90
24049;DHT22;12250;50.956;4.746;2022-10-17T15:15:41;20.50;99.90
24049;DHT22;12250;50.956;4.746;2022-10-17T15:18:10;20.50;99.90
24049;DHT22;12250;50.956;4.746;2022-10-17T15:20:36;20.30;99.90
24049;DHT22;12250;50.956;4.746;2022-10-17T15:23:02;20.20;99.90
24049;DHT22;12250;50.956;4.746;2022-10-17T15:25:29;20.20;99.90
24049;DHT22;12250;50.956;4.746;2022-10-17T15:27:56;20.10;99.90
24049;DHT22;12250;50.956;4.746;2022-10-17T15:30:24;20.10;99.90
24049;DHT22;12250;50.956;4.746;2022-10-17T15:32:51;20.00;99.90
24049;DHT22;12250;50.956;4.746;2022-10-17T15:35:17;19.90;99.90
24049;DHT22;12250;50.956;4.746;2022-10-17T15:37:43;19.80;99.90
24049;DHT22;12250;50.956;4.746;2022-10-17T15:40:23;19.70;99.90
24049;DHT22;12250;50.956;4.746;2022-10-17T15:42:49;19.60;99.90
24049;DHT22;12250;50.956;4.746;2022-10-17T15:45:17;19.50;99.90
24049;DHT22;12250;50.956;4.746;2022-10-17T15:47:49;19.40;99.90
24049;DHT22;12250;50.956;4.746;2022-10-17T15:50:16;19.40;99.90
24049;DHT22;12250;50.956;4.746;2022-10-17T15:52:42;19.30;99.90
24049;DHT22;12250;50.956;4.746;2022-10-17T15:55:09;19.20;99.90
24049;DHT22;12250;50.956;4.746;2022-10-17T15:57:37;19.10;99.90
24049;DHT22;12250;50.956;4.746;2022-10-17T16:00:06;19.10;99.90
24049;DHT22;12250;50.956;4.746;2022-10-17T16:02:32;19.00;99.90
24049;DHT22;12250;50.956;4.746;2022-10-17T16:04:58;18.90;99.90
24049;DHT22;12250;50.956;4.746;2022-10-17T16:07:24;18.90;99.90
24049;DHT22;12250;50.956;4.746;2022-10-17T16:09:50;18.80;99.90
24049;DHT22;12250;50.956;4.746;2022-10-17T16:12:18;18.70;99.90
24049;DHT22;12250;50.956;4.746;2022-10-17T16:14:46;18.70;99.90
24049;DHT22;12250;50.956;4.746;2022-10-17T16:17:15;18.60;99.90
24049;DHT22;12250;50.956;4.746;2022-10-17T16:19:41;18.50;99.90
24049;DHT22;12250;50.956;4.746;2022-10-17T16:22:20;18.50;99.90
24049;DHT22;12250;50.956;4.746;2022-10-17T16:24:47;18.50;99.90
24049;DHT22;12250;50.956;4.746;2022-10-17T16:27:13;18.40;99.90
24049;DHT22;12250;50.956;4.746;2022-10-17T16:29:38;18.30;99.90
24049;DHT22;12250;50.956;4.746;2022-10-17T16:32:04;18.30;99.90
24049;DHT22;12250;50.956;4.746;2022-10-17T16:34:30;18.20;99.90
24049;DHT22;12250;50.956;4.746;2022-10-17T16:36:56;18.10;99.90
24049;DHT22;12250;50.956;4.746;2022-10-17T16:39:22;18.10;99.90
24049;DHT22;12250;50.956;4.746;2022-10-17T16:41:47;18.00;99.90
24049;DHT22;12250;50.956;4.746;2022-10-17T16:44:13;18.00;99.90
24049;DHT22;12250;50.956;4.746;2022-10-17T16:46:39;17.90;99.90
24049;DHT22;12250;50.956;4.746;2022-10-17T16:49:05;17.90;99.90
24049;DHT22;12250;50.956;4.746;2022-10-17T16:51:31;17.80;99.90
24049;DHT22;12250;50.956;4.746;2022-10-17T16:54:00;17.70;99.90
24049;DHT22;12250;50.956;4.746;2022-10-17T16:56:26;17.60;99.90
24049;DHT22;12250;50.956;4.746;2022-10-17T16:58:57;17.60;99.90
24049;DHT22;12250;50.956;4.746;2022-10-17T17:01:24;17.50;99.90
24049;DHT22;12250;50.956;4.746;2022-10-17T17:03:51;17.40;99.90
24049;DHT22;12250;50.956;4.746;2022-10-17T17:06:23;17.40;99.90
24049;DHT22;12250;50.956;4.746;2022-10-17T17:08:49;17.40;99.90
24049;DHT22;12250;50.956;4.746;2022-10-17T17:11:16;17.40;99.90
24049;DHT22;12250;50.956;4.746;2022-10-17T17:13:42;17.40;99.90
24049;DHT22;12250;50.956;4.746;2022-10-17T17:16:13;17.30;99.90
24049;DHT22;12250;50.956;4.746;2022-10-17T17:18:40;17.30;99.90
24049;DHT22;12250;50.956;4.746;2022-10-17T17:21:07;17.30;99.90
24049;DHT22;12250;50.956;4.746;2022-10-17T17:23:35;17.30;99.90
24049;DHT22;12250;50.956;4.746;2022-10-17T17:26:04;17.30;99.90
24049;DHT22;12250;50.956;4.746;2022-10-17T17:28:31;17.30;99.90
24049;DHT22;12250;50.956;4.746;2022-10-17T17:30:57;17.20;99.90
24049;DHT22;12250;50.956;4.746;2022-10-17T17:33:22;17.20;99.90
24049;DHT22;12250;50.956;4.746;2022-10-17T17:35:56;17.30;99.90
24049;DHT22;12250;50.956;4.746;2022-10-17T17:38:23;17.30;99.90
24049;DHT22;12250;50.956;4.746;2022-10-17T17:40:49;17.30;99.90
24049;DHT22;12250;50.956;4.746;2022-10-17T17:43:15;17.30;99.90
24049;DHT22;12250;50.956;4.746;2022-10-17T17:45:41;17.20;99.90
24049;DHT22;12250;50.956;4.746;2022-10-17T17:48:07;17.30;99.90
24049;DHT22;12250;50.956;4.746;2022-10-17T17:50:35;17.20;99.90
24049;DHT22;12250;50.956;4.746;2022-10-17T17:53:02;17.20;99.90
24049;DHT22;12250;50.956;4.746;2022-10-17T17:55:28;17.10;99.90